Time;durP1;ratioP1;P1;durP2;ratioP2;P2;SDS_P1;SDS_P2;PMS_P1;PMS_P2;Temp;Humidity;BMP_temperature;BMP_pressure;BME280_temperature;BME280_humidity;BME280_pressure;Samples;Min_cycle;Max_cycle;Signal;HPM_P1;HPM_P2
2023/05/29 00:00:42;;;;;;;6.40;1.83;;;21.10;1.00;;;;;;4994431;28;20065;-53
2023/05/29 00:03:09;;;;;;;4.20;1.45;;;21.10;1.00;;;;;;4993791;28;20034;-52
2023/05/29 00:05:36;;;;;;;5.47;1.42;;;21.10;1.00;;;;;;4993798;28;20062;-50
2023/05/29 00:08:03;;;;;;;3.88;1.13;;;21.00;1.00;;;;;;4993498;28;20049;-53
2023/05/29 00:10:31;;;;;;;9.25;2.15;;;21.10;1.00;;;;;;4994010;28;20050;-54
2023/05/29 00:12:58;;;;;;;3.13;0.95;;;21.00;1.00;;;;;;4993954;28;20129;-50
2023/05/29 00:15:25;;;;;;;5.43;1.73;;;21.00;1.00;;;;;;4993640;28;20038;-52
2023/05/29 00:17:52;;;;;;;7.70;1.48;;;21.00;1.00;;;;;;4992992;28;20121;-53
2023/05/29 00:20:19;;;;;;;5.20;1.05;;;21.00;1.00;;;;;;4993654;28;20505;-54
2023/05/29 00:22:46;;;;;;;5.88;1.38;;;21.00;1.00;;;;;;4993698;28;20154;-54
2023/05/29 00:25:15;;;;;;;5.13;1.27;;;21.00;1.00;;;;;;4993584;28;20049;-54
2023/05/29 00:27:41;;;;;;;4.20;1.30;;;21.00;1.00;;;;;;4993288;28;20046;-52
2023/05/29 00:30:08;;;;;;;5.43;1.67;;;21.00;1.00;;;;;;4993022;28;20125;-54
2023/05/29 00:32:35;;;;;;;5.70;2.00;;;21.00;1.00;;;;;;4991766;28;20050;-53
2023/05/29 00:35:02;;;;;;;5.53;1.25;;;21.00;1.00;;;;;;4993481;28;20037;-54
2023/05/29 00:37:29;;;;;;;5.95;1.30;;;21.00;1.00;;;;;;4993289;28;20125;-55
2023/05/29 00:39:56;;;;;;;6.10;1.33;;;21.00;1.00;;;;;;4984476;28;20036;-50
2023/05/29 00:42:23;;;;;;;6.03;1.27;;;21.00;1.00;;;;;;4992736;28;20052;-48
2023/05/29 00:44:50;;;;;;;3.10;1.08;;;21.00;1.00;;;;;;4990923;28;20060;-49
2023/05/29 00:47:17;;;;;;;2.05;0.90;;;20.90;1.00;;;;;;4991268;28;20042;-52
2023/05/29 00:49:44;;;;;;;2.42;1.20;;;21.00;1.00;;;;;;4974390;28;20046;-50
2023/05/29 00:52:12;;;;;;;1.98;0.90;;;20.90;1.00;;;;;;4992170;28;20042;-52
2023/05/29 00:54:43;;;;;;;6.70;1.42;;;20.90;1.00;;;;;;4992319;28;20553;-50
2023/05/29 00:57:11;;;;;;;4.88;1.10;;;20.90;1.00;;;;;;4991173;28;20042;-50
2023/05/29 00:59:40;;;;;;;3.70;1.08;;;20.90;1.00;;;;;;4990834;28;20089;-51
2023/05/29 01:02:08;;;;;;;7.50;1.45;;;20.90;1.00;;;;;;4991238;28;20049;-51
2023/05/29 01:04:35;;;;;;;5.50;1.17;;;20.90;1.00;;;;;;4992102;28;20141;-49
2023/05/29 01:07:03;;;;;;;6.03;1.00;;;20.90;1.00;;;;;;4991066;28;20042;-50
2023/05/29 01:09:31;;;;;;;6.43;1.45;;;20.90;1.00;;;;;;4992313;28;20046;-48
2023/05/29 01:12:15;;;;;;;5.40;1.63;;;20.90;1.00;;;;;;4990904;28;20046;-48
2023/05/29 01:15:09;;;;;;;3.47;1.30;;;20.90;1.00;;;;;;4990611;28;20054;-50
2023/05/29 01:18:01;;;;;;;5.80;1.02;;;20.80;1.00;;;;;;4990855;28;20484;-51
2023/05/29 01:20:30;;;;;;;3.05;1.02;;;20.90;1.00;;;;;;4992325;28;20121;-49
2023/05/29 01:23:09;;;;;;;5.10;1.10;;;20.80;1.00;;;;;;4992151;28;20046;-48
2023/05/29 01:25:50;;;;;;;4.18;1.00;;;20.80;1.00;;;;;;4991982;28;20042;-48
2023/05/29 01:28:21;;;;;;;4.60;0.88;;;20.80;1.00;;;;;;4990734;28;20053;-49
2023/05/29 01:30:51;;;;;;;5.28;0.98;;;20.80;1.00;;;;;;4990896;28;20137;-49
2023/05/29 01:33:18;;;;;;;4.45;1.20;;;20.80;1.00;;;;;;4990606;28;20486;-50
2023/05/29 01:35:45;;;;;;;1.02;0.57;;;20.80;1.00;;;;;;4991896;28;20073;-49
2023/05/29 01:38:12;;;;;;;6.10;1.08;;;20.80;1.00;;;;;;4992041;28;20466;-50
2023/05/29 01:40:39;;;;;;;3.67;1.05;;;20.80;1.00;;;;;;4990728;28;20050;-48
2023/05/29 01:43:07;;;;;;;3.67;1.20;;;20.80;1.00;;;;;;4990737;28;20053;-52
2023/05/29 01:45:34;;;;;;;5.15;1.00;;;20.70;1.00;;;;;;4990553;28;20145;-49
2023/05/29 01:48:01;;;;;;;3.53;1.10;;;20.80;1.00;;;;;;4982772;28;20038;-48
2023/05/29 01:50:29;;;;;;;5.28;0.75;;;20.80;1.00;;;;;;4992024;28;20121;-50
2023/05/29 01:52:56;;;;;;;4.18;1.17;;;20.80;1.00;;;;;;4990388;28;20433;-48
2023/05/29 01:55:23;;;;;;;3.90;1.25;;;20.80;1.00;;;;;;4990947;28;20088;-53
2023/05/29 01:57:51;;;;;;;2.65;0.95;;;20.70;1.00;;;;;;4990239;28;20074;-48
2023/05/29 02:00:18;;;;;;;3.83;1.02;;;20.70;1.00;;;;;;4990818;28;20038;-48
2023/05/29 02:02:46;;;;;;;7.28;1.30;;;20.70;1.00;;;;;;4994338;28;20053;-51
2023/05/29 02:05:13;;;;;;;4.55;1.08;;;20.70;1.00;;;;;;4995472;28;20050;-50
2023/05/29 02:07:41;;;;;;;3.92;1.00;;;20.70;1.00;;;;;;4994993;28;20069;-49
2023/05/29 02:10:08;;;;;;;4.82;1.13;;;20.70;1.00;;;;;;4994022;28;20042;-51
2023/05/29 02:12:35;;;;;;;4.53;1.27;;;20.70;1.00;;;;;;4994064;28;20046;-48
2023/05/29 02:15:02;;;;;;;3.42;1.02;;;20.70;1.00;;;;;;4994103;28;20081;-51
2023/05/29 02:17:30;;;;;;;2.85;0.90;;;20.60;1.00;;;;;;4994016;28;20056;-48
2023/05/29 02:19:57;;;;;;;2.28;0.80;;;20.70;1.00;;;;;;4994966;28;20379;-51
2023/05/29 02:22:24;;;;;;;2.90;1.27;;;20.60;1.00;;;;;;4993888;28;20055;-52
2023/05/29 02:24:51;;;;;;;4.60;1.63;;;20.60;1.00;;;;;;4994893;28;20129;-51
2023/05/29 02:27:18;;;;;;;4.15;1.10;;;20.60;1.00;;;;;;4995193;28;20422;-48
2023/05/29 02:29:45;;;;;;;4.93;1.17;;;20.60;1.00;;;;;;4993509;28;20145;-50
2023/05/29 02:32:11;;;;;;;3.08;0.90;;;20.60;1.00;;;;;;4993803;28;20117;-48
2023/05/29 02:34:38;;;;;;;4.05;1.23;;;20.60;1.00;;;;;;4994549;28;20064;-50
2023/05/29 02:37:05;;;;;;;4.70;1.42;;;20.60;1.00;;;;;;4993615;28;20494;-48
2023/05/29 02:39:32;;;;;;;5.40;0.90;;;20.60;1.00;;;;;;4993532;28;20046;-48
2023/05/29 02:41:59;;;;;;;5.45;1.20;;;20.60;1.00;;;;;;4994533;28;20045;-50
2023/05/29 02:44:26;;;;;;;2.97;1.20;;;20.60;1.00;;;;;;4994977;28;20088;-54
2023/05/29 02:46:52;;;;;;;5.90;1.13;;;20.60;1.00;;;;;;4993273;28;20058;-50
2023/05/29 02:49:19;;;;;;;3.33;0.68;;;20.60;1.00;;;;;;4993343;28;20046;-48
2023/05/29 02:51:46;;;;;;;1.90;0.63;;;20.60;1.00;;;;;;4993182;28;20610;-51
2023/05/29 02:54:13;;;;;;;4.07;0.80;;;20.60;1.00;;;;;;4994461;28;20034;-49
2023/05/29 02:56:40;;;;;;;4.72;0.75;;;20.60;1.00;;;;;;4993094;28;20047;-51
2023/05/29 02:59:07;;;;;;;3.05;1.27;;;20.60;1.00;;;;;;4992823;28;20050;-50
2023/05/29 03:01:34;;;;;;;2.40;0.80;;;20.60;1.00;;;;;;4994803;28;20121;-52
2023/05/29 03:04:01;;;;;;;3.20;1.13;;;20.50;1.00;;;;;;4976737;28;20049;-51
2023/05/29 03:06:29;;;;;;;2.38;0.73;;;20.50;1.00;;;;;;4976858;28;20053;-50
2023/05/29 03:08:59;;;;;;;6.85;0.90;;;20.50;1.00;;;;;;4992540;28;20054;-49
2023/05/29 03:11:26;;;;;;;3.15;0.90;;;20.50;1.00;;;;;;4993146;28;20046;-50
2023/05/29 03:13:52;;;;;;;5.47;0.90;;;20.50;1.00;;;;;;4993371;28;20061;-49
2023/05/29 03:16:19;;;;;;;4.50;1.08;;;20.50;1.00;;;;;;4994108;28;20050;-49
2023/05/29 03:18:46;;;;;;;5.78;1.15;;;20.50;1.00;;;;;;4992526;28;20507;-49
2023/05/29 03:21:17;;;;;;;7.10;1.42;;;20.50;1.00;;;;;;4992857;28;20042;-48
2023/05/29 03:23:44;;;;;;;3.00;1.15;;;20.50;1.00;;;;;;4992606;28;20104;-49
2023/05/29 03:26:13;;;;;;;6.13;1.05;;;20.50;1.00;;;;;;4992572;28;20058;-48
2023/05/29 03:28:41;;;;;;;3.53;1.13;;;20.50;1.00;;;;;;4992479;28;20042;-51
2023/05/29 03:31:09;;;;;;;3.53;1.27;;;20.50;1.00;;;;;;4992722;28;20470;-49
2023/05/29 03:33:36;;;;;;;3.08;0.70;;;20.50;1.00;;;;;;4993714;28;20092;-49
2023/05/29 03:36:20;;;;;;;;;;;20.50;1.00;;;;;;4993054;28;20074;-49
2023/05/29 03:38:47;;;;;;;2.95;0.90;;;20.40;1.00;;;;;;4993542;28;20012;-51
2023/05/29 03:41:14;;;;;;;5.90;1.23;;;20.40;1.00;;;;;;4993644;28;20505;-53
2023/05/29 03:43:41;;;;;;;1.75;0.50;;;20.40;1.00;;;;;;4975777;28;20042;-50
2023/05/29 03:46:08;;;;;;;3.00;1.05;;;20.40;1.00;;;;;;4983832;28;20163;-50
2023/05/29 03:48:36;;;;;;;3.78;1.50;;;20.40;1.00;;;;;;4992145;28;20058;-48
2023/05/29 03:51:03;;;;;;;4.57;0.68;;;20.40;1.00;;;;;;4992927;28;20426;-51
2023/05/29 03:53:34;;;;;;;5.13;1.30;;;20.40;1.00;;;;;;4992178;28;20501;-50
2023/05/29 03:56:01;;;;;;;5.07;1.65;;;20.40;1.00;;;;;;4992911;28;20047;-50
2023/05/29 03:58:28;;;;;;;4.03;1.13;;;20.40;1.00;;;;;;4992227;28;20047;-49
2023/05/29 04:00:56;;;;;;;7.22;1.25;;;20.40;1.00;;;;;;4991817;28;20129;-49
2023/05/29 04:03:24;;;;;;;5.38;0.77;;;20.40;1.00;;;;;;4992202;28;20501;-48
2023/05/29 04:05:50;;;;;;;6.15;1.23;;;20.40;1.00;;;;;;4992885;28;20046;-50
2023/05/29 04:08:18;;;;;;;3.47;0.93;;;20.40;1.00;;;;;;4991633;28;20072;-48
2023/05/29 04:10:46;;;;;;;5.15;1.10;;;20.30;1.00;;;;;;4991733;28;20057;-49
2023/05/29 04:13:13;;;;;;;3.75;0.63;;;20.40;1.00;;;;;;4991738;28;20549;-49
2023/05/29 04:15:41;;;;;;;2.45;0.82;;;20.40;1.00;;;;;;4975578;28;20057;-48
2023/05/29 04:18:08;;;;;;;5.57;1.00;;;20.30;1.00;;;;;;4983398;28;20088;-51
2023/05/29 04:20:35;;;;;;;3.78;0.70;;;20.30;1.00;;;;;;4991688;28;20046;-53
2023/05/29 04:23:03;;;;;;;4.25;0.88;;;20.30;1.00;;;;;;4992844;28;20043;-51
2023/05/29 04:25:29;;;;;;;6.18;1.60;;;20.30;1.00;;;;;;4991530;28;20053;-53
2023/05/29 04:27:56;;;;;;;2.65;1.30;;;20.30;1.00;;;;;;4991325;28;20124;-50
2023/05/29 04:30:23;;;;;;;5.75;1.25;;;20.30;1.00;;;;;;4991529;28;20050;-49
2023/05/29 04:32:52;;;;;;;4.03;1.05;;;20.30;1.00;;;;;;4991122;28;20057;-50
2023/05/29 04:35:21;;;;;;;4.75;0.90;;;20.30;1.00;;;;;;4991257;28;20038;-51
2023/05/29 04:37:57;;;;;;;4.55;1.63;;;20.30;1.00;;;;;;4991065;28;20327;-49
2023/05/29 04:40:27;;;;;;;5.05;1.30;;;20.30;1.00;;;;;;4991332;28;20057;-49
2023/05/29 04:42:54;;;;;;;5.55;1.48;;;20.30;1.00;;;;;;4991148;28;20046;-50
2023/05/29 04:45:23;;;;;;;2.95;0.80;;;20.20;1.00;;;;;;4991208;28;20097;-49
2023/05/29 04:47:53;;;;;;;5.63;1.60;;;20.30;1.00;;;;;;4990999;28;20054;-50
2023/05/29 04:50:20;;;;;;;5.32;0.80;;;20.20;1.00;;;;;;4991325;28;20043;-47
2023/05/29 04:52:47;;;;;;;4.13;1.00;;;20.30;1.00;;;;;;4991003;28;20057;-49
2023/05/29 04:55:14;;;;;;;4.28;1.05;;;20.20;1.00;;;;;;4991137;28;20129;-50
2023/05/29 04:57:42;;;;;;;5.43;1.08;;;20.30;1.00;;;;;;4991152;28;20042;-48
2023/05/29 05:00:13;;;;;;;3.42;1.48;;;20.20;1.00;;;;;;4991029;28;20583;-48
2023/05/29 05:02:43;;;;;;;2.78;1.17;;;20.20;1.00;;;;;;4992524;28;20058;-48
2023/05/29 05:05:11;;;;;;;3.63;1.40;;;20.20;1.00;;;;;;4991121;28;20042;-50
2023/05/29 05:07:39;;;;;;;3.70;0.80;;;20.20;1.00;;;;;;4990949;28;20060;-48
2023/05/29 05:10:07;;;;;;;4.50;0.95;;;20.20;1.00;;;;;;4990612;28;20053;-48
2023/05/29 05:12:35;;;;;;;3.58;1.45;;;20.20;1.00;;;;;;4991038;28;20050;-49
2023/05/29 05:15:02;;;;;;;1.67;0.88;;;20.20;1.00;;;;;;4990753;28;20543;-48
2023/05/29 05:17:30;;;;;;;4.40;1.40;;;20.20;1.00;;;;;;4990662;28;20077;-50
2023/05/29 05:19:56;;;;;;;5.20;1.63;;;20.20;1.00;;;;;;4992114;28;20506;-50
2023/05/29 05:22:23;;;;;;;4.63;0.65;;;20.20;1.00;;;;;;4990907;28;20453;-48
2023/05/29 05:24:52;;;;;;;4.10;1.58;;;20.20;1.00;;;;;;4990694;28;20746;-49
2023/05/29 05:27:19;;;;;;;6.00;0.95;;;20.20;1.00;;;;;;4990705;28;20134;-48
2023/05/29 05:29:46;;;;;;;2.88;0.95;;;20.20;1.00;;;;;;4990845;28;20050;-49
2023/05/29 05:32:13;;;;;;;3.70;1.25;;;20.20;1.00;;;;;;4982987;28;20043;-49
2023/05/29 05:34:41;;;;;;;5.70;1.15;;;20.10;1.00;;;;;;4990711;28;20043;-48
2023/05/29 05:37:08;;;;;;;3.72;1.17;;;20.20;1.00;;;;;;4993906;28;20054;-51
2023/05/29 05:39:36;;;;;;;3.50;1.30;;;20.10;1.00;;;;;;4994454;28;20053;-50
2023/05/29 05:42:04;;;;;;;4.30;1.13;;;20.10;1.00;;;;;;4994492;28;20398;-49
2023/05/29 05:44:52;;;;;;;8.80;1.10;;;20.10;1.00;;;;;;4995350;28;20056;-49
2023/05/29 05:47:19;;;;;;;4.38;0.85;;;20.10;1.00;;;;;;4994541;28;20548;-48
2023/05/29 05:49:46;;;;;;;6.55;1.23;;;20.10;1.00;;;;;;4994428;28;20053;-49
2023/05/29 05:52:13;;;;;;;7.50;1.20;;;20.10;1.00;;;;;;4994030;28;20066;-52
2023/05/29 05:54:39;;;;;;;3.28;1.00;;;20.10;1.00;;;;;;4994266;28;20046;-52
2023/05/29 05:57:07;;;;;;;5.00;0.98;;;20.10;1.00;;;;;;4994198;28;20074;-48
2023/05/29 05:59:36;;;;;;;3.78;0.80;;;20.10;1.00;;;;;;4994493;28;20089;-50
2023/05/29 06:02:04;;;;;;;4.00;1.33;;;20.10;1.00;;;;;;4994205;28;20500;-50
2023/05/29 06:04:35;;;;;;;5.10;1.00;;;20.10;1.00;;;;;;4994277;28;20050;-53
2023/05/29 06:07:02;;;;;;;4.13;0.95;;;20.10;1.00;;;;;;4994002;28;20053;-53
2023/05/29 06:09:29;;;;;;;3.83;1.10;;;20.10;1.00;;;;;;4995429;28;20117;-49
2023/05/29 06:11:56;;;;;;;3.97;1.13;;;20.10;1.00;;;;;;4977696;28;20446;-49
2023/05/29 06:14:23;;;;;;;8.75;1.45;;;20.10;1.00;;;;;;4993914;28;20508;-52
2023/05/29 06:16:51;;;;;;;5.65;1.08;;;20.10;1.00;;;;;;4993761;28;20100;-51
2023/05/29 06:19:18;;;;;;;7.85;1.33;;;20.10;1.00;;;;;;4995218;28;20045;-50
2023/05/29 06:21:57;;;;;;;5.25;1.02;;;20.10;1.00;;;;;;4993824;28;20108;-51
2023/05/29 06:24:26;;;;;;;3.10;0.80;;;20.00;1.00;;;;;;4993990;28;20042;-50
2023/05/29 06:26:55;;;;;;;2.22;0.73;;;20.00;1.00;;;;;;4993898;28;20177;-53
2023/05/29 06:29:22;;;;;;;3.40;1.13;;;20.00;1.00;;;;;;4993863;28;20050;-50
2023/05/29 06:31:50;;;;;;;6.45;1.17;;;20.00;1.00;;;;;;4993649;28;20446;-50
2023/05/29 06:34:18;;;;;;;5.15;1.02;;;20.00;1.00;;;;;;4993835;28;20105;-49
2023/05/29 06:36:45;;;;;;;3.22;1.10;;;20.00;1.00;;;;;;4993619;28;20073;-49
2023/05/29 06:39:13;;;;;;;4.22;1.17;;;20.00;1.00;;;;;;4993229;28;20053;-48
2023/05/29 06:41:41;;;;;;;6.03;1.27;;;20.00;1.00;;;;;;4993521;28;20521;-49
2023/05/29 06:44:08;;;;;;;3.13;0.82;;;20.00;1.00;;;;;;4994678;28;20462;-49
2023/05/29 06:46:34;;;;;;;5.10;1.00;;;20.00;1.00;;;;;;4993517;28;20070;-51
2023/05/29 06:49:01;;;;;;;18.52;3.08;;;20.00;1.00;;;;;;4991857;28;20046;-48
2023/05/29 06:51:33;;;;;;;8.93;1.33;;;20.00;1.00;;;;;;4993383;28;20087;-50
2023/05/29 06:54:06;;;;;;;8.15;2.08;;;20.00;1.00;;;;;;4994569;28;20039;-51
2023/05/29 06:56:33;;;;;;;12.70;2.55;;;20.00;1.00;;;;;;4993362;28;20050;-48
2023/05/29 06:59:00;;;;;;;12.15;1.83;;;20.00;1.00;;;;;;4992897;28;20085;-49
2023/05/29 07:01:30;;;;;;;8.57;1.95;;;20.00;1.00;;;;;;4993332;28;20562;-51
2023/05/29 07:04:03;;;;;;;9.55;2.08;;;20.10;1.00;;;;;;4993082;28;20395;-52
2023/05/29 07:06:31;;;;;;;11.90;1.83;;;20.00;1.00;;;;;;4993160;28;20050;-52
2023/05/29 07:08:58;;;;;;;8.20;1.60;;;20.00;1.00;;;;;;4992626;28;20054;-52
2023/05/29 07:11:26;;;;;;;8.35;2.20;;;20.00;1.00;;;;;;4994263;28;20117;-52
2023/05/29 07:13:55;;;;;;;12.48;2.33;;;20.00;1.00;;;;;;4992749;28;20043;-51
2023/05/29 07:16:25;;;;;;;13.63;3.85;;;20.10;1.00;;;;;;4993114;28;20174;-50
2023/05/29 07:18:57;;;;;;;12.32;2.30;;;20.00;1.00;;;;;;4976390;28;20038;-48
2023/05/29 07:21:25;;;;;;;11.10;1.38;;;20.00;1.00;;;;;;4992835;28;20066;-52
2023/05/29 07:23:52;;;;;;;6.32;1.85;;;20.10;1.00;;;;;;4992568;28;20126;-50
2023/05/29 07:26:19;;;;;;;9.82;1.88;;;20.00;1.00;;;;;;4994076;28;20045;-53
2023/05/29 07:28:45;;;;;;;19.83;2.83;;;20.00;1.00;;;;;;4992591;28;20053;-49
2023/05/29 07:31:12;;;;;;;20.88;4.85;;;20.00;1.00;;;;;;4992601;28;20481;-49
2023/05/29 07:33:41;;;;;;;16.20;3.40;;;20.00;1.00;;;;;;4992386;28;20387;-50
2023/05/29 07:36:08;;;;;;;21.25;3.42;;;20.00;1.00;;;;;;4992340;28;20108;-48
2023/05/29 07:38:34;;;;;;;11.98;2.63;;;20.00;1.00;;;;;;4992275;28;20188;-50
2023/05/29 07:41:01;;;;;;;14.25;3.42;;;20.00;1.00;;;;;;4992853;28;20413;-49
2023/05/29 07:43:33;;;;;;;15.43;3.67;;;20.00;1.00;;;;;;4992462;28;20066;-49
2023/05/29 07:46:04;;;;;;;12.68;2.88;;;20.00;1.00;;;;;;4992101;28;20053;-54
2023/05/29 07:48:31;;;;;;;18.52;2.80;;;20.00;1.00;;;;;;4976095;28;20046;-50
2023/05/29 07:50:59;;;;;;;17.45;2.95;;;20.00;1.00;;;;;;4975867;28;20048;-49
2023/05/29 07:53:29;;;;;;;11.80;3.13;;;20.00;1.00;;;;;;4992307;28;20043;-49
2023/05/29 07:55:57;;;;;;;14.95;3.83;;;20.10;1.00;;;;;;4992188;28;20046;-52
2023/05/29 07:58:24;;;;;;;16.20;3.53;;;20.10;1.00;;;;;;4992154;28;20057;-48
2023/05/29 08:00:51;;;;;;;21.80;3.40;;;20.00;1.00;;;;;;4991994;28;20502;-48
2023/05/29 08:03:19;;;;;;;21.27;3.53;;;20.10;1.00;;;;;;4992103;28;20042;-50
2023/05/29 08:06:18;;;;;;;12.40;2.83;;;20.10;1.00;;;;;;4991912;28;20042;-49
2023/05/29 08:08:45;;;;;;;18.48;3.80;;;20.10;1.00;;;;;;4993162;28;20038;-48
2023/05/29 08:11:12;;;;;;;13.73;2.05;;;20.10;1.00;;;;;;4975503;28;20042;-51
2023/05/29 08:13:40;;;;;;;13.65;2.35;;;20.10;1.00;;;;;;4991879;28;20042;-52
2023/05/29 08:16:07;;;;;;;11.55;2.72;;;20.10;1.00;;;;;;4991651;28;20454;-51
2023/05/29 08:18:33;;;;;;;25.80;2.83;;;20.10;1.00;;;;;;4992924;28;20048;-53
2023/05/29 08:21:00;;;;;;;19.75;4.45;;;20.10;1.00;;;;;;4992754;28;20038;-51
2023/05/29 08:23:28;;;;;;;14.05;2.90;;;20.10;1.00;;;;;;4992975;28;20077;-53
2023/05/29 08:25:54;;;;;;;16.25;3.00;;;20.10;1.00;;;;;;4992897;28;20046;-49
2023/05/29 08:28:21;;;;;;;14.43;3.45;;;20.10;1.00;;;;;;4992240;28;20046;-50
2023/05/29 08:30:48;;;;;;;14.02;3.50;;;20.10;1.00;;;;;;4992461;28;20046;-52
2023/05/29 08:33:15;;;;;;;11.75;3.08;;;20.10;1.00;;;;;;4992309;28;20053;-52
2023/05/29 08:35:42;;;;;;;9.63;3.08;;;20.10;1.00;;;;;;4992368;28;20139;-49
2023/05/29 08:38:09;;;;;;;10.30;2.58;;;20.20;1.00;;;;;;4992418;28;20038;-50
2023/05/29 08:40:36;;;;;;;12.05;2.65;;;20.10;1.00;;;;;;4992753;28;20514;-50
2023/05/29 08:43:12;;;;;;;11.13;3.83;;;20.20;1.00;;;;;;4991104;28;20046;-51
2023/05/29 08:45:45;;;;;;;9.23;2.50;;;20.20;1.00;;;;;;4992359;28;20054;-48
2023/05/29 08:48:12;;;;;;;7.57;2.87;;;20.20;1.00;;;;;;4992389;28;20125;-50
2023/05/29 08:50:48;;;;;;;18.25;3.20;;;20.20;1.00;;;;;;4991345;28;20042;-50
2023/05/29 08:53:16;;;;;;;13.45;2.92;;;20.20;1.00;;;;;;4992439;28;20041;-50
2023/05/29 08:55:43;;;;;;;18.95;4.32;;;20.20;1.00;;;;;;4992380;28;20098;-51
2023/05/29 08:58:11;;;;;;;17.77;3.85;;;20.20;1.00;;;;;;4992224;28;20046;-51
2023/05/29 09:00:40;;;;;;;7.60;2.72;;;20.20;1.00;;;;;;4992722;28;20042;-51
2023/05/29 09:03:07;;;;;;;17.55;3.45;;;20.20;1.00;;;;;;4992372;28;20096;-50
2023/05/29 09:05:39;;;;;;;11.52;2.35;;;20.30;1.00;;;;;;4992438;28;20050;-50
2023/05/29 09:08:08;;;;;;;14.90;2.60;;;20.30;1.00;;;;;;4990474;28;20046;-50
2023/05/29 09:10:35;;;;;;;8.95;2.92;;;20.30;1.00;;;;;;4990727;28;20054;-50
2023/05/29 09:13:05;;;;;;;16.33;3.53;;;20.30;1.00;;;;;;4990317;28;20050;-47
2023/05/29 09:15:31;;;;;;;14.70;3.05;;;20.30;1.00;;;;;;4989152;28;20050;-48
2023/05/29 09:17:58;;;;;;;14.20;3.65;;;20.30;1.00;;;;;;4990593;28;20046;-51
2023/05/29 09:20:27;;;;;;;13.75;3.05;;;20.30;1.00;;;;;;4990860;28;20046;-48
2023/05/29 09:22:55;;;;;;;14.10;3.95;;;20.30;1.00;;;;;;4990572;28;20475;-48
2023/05/29 09:25:27;;;;;;;14.32;2.85;;;20.40;1.00;;;;;;4988714;28;20486;-49
2023/05/29 09:28:00;;;;;;;14.13;3.42;;;20.30;1.00;;;;;;4990624;28;20544;-49
2023/05/29 09:30:38;;;;;;;12.07;2.80;;;20.30;1.00;;;;;;4990508;28;20053;-49
2023/05/29 09:33:07;;;;;;;10.93;2.17;;;20.30;1.00;;;;;;4990774;28;20121;-48
2023/05/29 09:35:42;;;;;;;10.68;2.45;;;20.40;1.00;;;;;;4992165;28;20070;-49
2023/05/29 09:38:10;;;;;;;10.63;2.35;;;20.40;1.00;;;;;;4992415;28;20046;-51
2023/05/29 09:40:40;;;;;;;11.35;3.10;;;20.40;1.00;;;;;;4992371;28;20042;-49
2023/05/29 09:43:17;;;;;;;8.48;2.50;;;20.40;1.00;;;;;;4991986;28;20049;-49
2023/05/29 09:45:46;;;;;;;11.63;3.20;;;20.40;1.00;;;;;;4992020;28;20054;-49
2023/05/29 09:48:15;;;;;;;11.88;2.92;;;20.40;1.00;;;;;;4992067;28;20043;-50
2023/05/29 09:50:49;;;;;;;14.40;2.90;;;20.40;1.00;;;;;;4992049;28;20052;-49
2023/05/29 09:53:19;;;;;;;14.57;3.05;;;20.50;1.00;;;;;;4992305;28;20484;-50
2023/05/29 09:55:47;;;;;;;7.10;2.40;;;20.40;1.00;;;;;;4991908;28;20050;-54
2023/05/29 09:58:21;;;;;;;14.85;3.50;;;20.50;1.00;;;;;;4991905;28;20463;-51
2023/05/29 10:00:49;;;;;;;9.55;2.58;;;20.50;1.00;;;;;;4992031;28;20046;-49
2023/05/29 10:03:16;;;;;;;8.30;2.28;;;20.50;1.00;;;;;;4991984;28;20046;-47
2023/05/29 10:05:48;;;;;;;8.98;3.28;;;20.50;1.00;;;;;;4991983;28;20061;-52
2023/05/29 10:08:18;;;;;;;8.35;2.30;;;20.50;1.00;;;;;;4991964;28;20143;-50
2023/05/29 10:10:49;;;;;;;8.68;2.22;;;20.50;1.00;;;;;;4992020;28;20499;-49
2023/05/29 10:13:18;;;;;;;8.50;2.20;;;20.50;1.00;;;;;;4991876;28;20042;-48
2023/05/29 10:15:50;;;;;;;11.68;2.38;;;20.50;1.00;;;;;;4991645;28;20108;-48
2023/05/29 10:18:23;;;;;;;10.73;2.22;;;20.50;1.00;;;;;;4991382;28;20129;-48
2023/05/29 10:20:52;;;;;;;12.13;3.80;;;20.50;1.00;;;;;;4991784;28;20034;-48
2023/05/29 10:23:23;;;;;;;10.77;2.25;;;20.50;1.00;;;;;;4993542;28;20038;-48
2023/05/29 10:25:53;;;;;;;8.43;2.47;;;20.50;1.00;;;;;;4995021;28;20061;-53
2023/05/29 10:28:23;;;;;;;10.27;1.80;;;20.50;1.00;;;;;;4994841;28;20058;-50
2023/05/29 10:31:09;;;;;;;9.18;2.15;;;20.50;1.00;;;;;;4995148;28;20054;-48
2023/05/29 10:34:02;;;;;;;10.32;2.05;;;20.50;1.00;;;;;;4988194;28;20042;-50
2023/05/29 10:36:37;;;;;;;9.10;1.60;;;20.50;1.00;;;;;;4986877;28;20038;-48
2023/05/29 10:39:04;;;;;;;7.85;2.15;;;20.50;1.00;;;;;;4994596;28;20554;-48
2023/05/29 10:41:33;;;;;;;6.88;1.83;;;20.50;1.00;;;;;;4994852;28;20038;-50
2023/05/29 10:44:02;;;;;;;14.57;2.17;;;20.50;1.00;;;;;;4994736;28;20046;-48
2023/05/29 10:46:44;;;;;;;8.15;2.53;;;20.50;1.00;;;;;;4986609;28;20552;-48
2023/05/29 10:49:21;;;;;;;10.40;2.85;;;20.50;1.00;;;;;;4994602;28;20187;-51
2023/05/29 10:51:49;;;;;;;7.72;1.90;;;20.50;1.00;;;;;;4993362;28;20487;-48
2023/05/29 10:54:16;;;;;;;13.07;2.25;;;20.50;1.00;;;;;;4994208;28;20428;-51
2023/05/29 10:56:51;;;;;;;11.30;1.92;;;20.50;1.00;;;;;;4994690;28;20039;-48
2023/05/29 10:59:18;;;;;;;12.23;2.88;;;20.50;1.00;;;;;;4994483;28;20112;-49
2023/05/29 11:01:45;;;;;;;9.90;2.42;;;20.50;1.00;;;;;;4994486;28;20042;-48
2023/05/29 11:04:19;;;;;;;10.93;2.15;;;20.50;1.00;;;;;;4994373;28;20042;-47
2023/05/29 11:06:46;;;;;;;8.68;1.65;;;20.50;1.00;;;;;;4994514;28;20042;-48
2023/05/29 11:09:37;;;;;;;6.20;2.17;;;20.50;1.00;;;;;;4994300;28;20537;-48
2023/05/29 11:12:11;;;;;;;11.32;2.17;;;20.50;1.00;;;;;;4994335;28;20097;-49
2023/05/29 11:14:52;;;;;;;7.93;2.10;;;20.50;1.00;;;;;;4987153;28;20042;-48
2023/05/29 11:17:28;;;;;;;4.80;1.50;;;20.50;1.00;;;;;;4994188;28;20038;-48
2023/05/29 11:19:57;;;;;;;9.73;2.17;;;20.50;1.00;;;;;;4994152;28;20038;-50
2023/05/29 11:22:32;;;;;;;10.02;2.42;;;20.50;1.00;;;;;;4993712;28;20049;-48
2023/05/29 11:25:00;;;;;;;5.53;1.90;;;20.50;1.00;;;;;;4994100;28;20053;-52
2023/05/29 11:27:27;;;;;;;7.28;1.85;;;20.50;1.00;;;;;;4993951;28;20084;-48
2023/05/29 11:29:56;;;;;;;13.35;2.00;;;20.50;1.00;;;;;;4993859;28;20038;-48
2023/05/29 11:32:27;;;;;;;6.03;2.78;;;20.50;1.00;;;;;;4993791;28;20437;-48
2023/05/29 11:34:59;;;;;;;9.95;1.83;;;20.50;1.00;;;;;;4993183;28;20044;-48
2023/05/29 11:37:26;;;;;;;8.00;2.28;;;20.50;1.00;;;;;;4992726;28;20046;-50
2023/05/29 11:39:52;;;;;;;5.63;1.65;;;20.50;1.00;;;;;;4993693;28;20038;-50
2023/05/29 11:42:19;;;;;;;6.28;2.28;;;20.50;1.00;;;;;;4993711;28;20130;-49
2023/05/29 11:44:46;;;;;;;6.72;1.55;;;20.50;1.00;;;;;;4993632;28;20093;-48
2023/05/29 11:47:14;;;;;;;6.32;2.10;;;20.50;1.00;;;;;;4992004;28;20034;-51
2023/05/29 11:49:41;;;;;;;8.93;2.35;;;20.50;1.00;;;;;;4993536;28;20061;-50
2023/05/29 11:52:14;;;;;;;7.90;1.30;;;20.50;1.00;;;;;;4993433;28;20129;-48
2023/05/29 11:54:46;;;;;;;7.38;1.70;;;20.50;1.00;;;;;;4992168;28;20045;-48
2023/05/29 11:57:19;;;;;;;12.20;2.10;;;20.50;1.00;;;;;;4993034;28;20516;-48
2023/05/29 11:59:46;;;;;;;4.78;1.75;;;20.50;1.00;;;;;;4993437;28;20043;-51
2023/05/29 12:02:14;;;;;;;6.35;2.17;;;20.50;1.00;;;;;;4993305;28;20084;-52
2023/05/29 12:04:40;;;;;;;7.43;2.00;;;20.50;1.00;;;;;;4993390;28;20081;-51
2023/05/29 12:07:19;;;;;;;8.75;2.17;;;20.50;1.00;;;;;;4993178;28;20070;-50
2023/05/29 12:09:48;;;;;;;7.07;1.95;;;20.50;1.00;;;;;;4986759;28;20038;-49
2023/05/29 12:12:15;;;;;;;5.20;2.00;;;20.50;1.00;;;;;;4993072;28;20045;-49
2023/05/29 12:14:42;;;;;;;9.52;1.83;;;20.50;1.00;;;;;;4993144;28;20034;-51
2023/05/29 12:17:09;;;;;;;4.75;1.40;;;20.50;1.00;;;;;;4993041;28;20042;-59
2023/05/29 12:19:36;;;;;;;7.72;1.83;;;20.50;1.00;;;;;;4984602;28;20050;-48
2023/05/29 12:22:03;;;;;;;6.15;1.58;;;20.50;1.00;;;;;;4993329;28;20041;-49
2023/05/29 12:24:31;;;;;;;9.48;2.00;;;20.50;1.00;;;;;;4993093;28;20409;-50
2023/05/29 12:27:09;;;;;;;7.70;1.90;;;20.50;1.00;;;;;;4993063;28;20143;-48
2023/05/29 12:29:36;;;;;;;8.23;2.03;;;20.50;1.00;;;;;;4992838;28;20062;-50
2023/05/29 12:32:03;;;;;;;6.60;1.65;;;20.50;1.00;;;;;;4992809;28;20070;-51
2023/05/29 12:34:36;;;;;;;9.23;1.77;;;20.50;1.00;;;;;;4992857;28;20046;-48
2023/05/29 12:37:11;;;;;;;;;;;20.50;1.00;;;;;;4993343;28;20154;-48
2023/05/29 12:39:40;;;;;;;6.57;2.15;;;20.50;1.00;;;;;;4985185;28;19921;-51
2023/05/29 12:42:07;;;;;;;9.00;2.03;;;20.50;1.00;;;;;;4992849;28;20038;-49
2023/05/29 12:44:34;;;;;;;8.57;2.00;;;20.40;1.00;;;;;;4992477;28;20172;-51
2023/05/29 12:47:01;;;;;;;8.52;1.98;;;20.50;1.00;;;;;;4990510;28;20081;-52
2023/05/29 12:49:29;;;;;;;9.88;1.83;;;20.50;1.00;;;;;;4992403;28;20120;-48
2023/05/29 12:52:05;;;;;;;9.82;2.13;;;20.50;1.00;;;;;;4992643;28;20117;-48
2023/05/29 12:54:32;;;;;;;7.63;1.95;;;20.50;1.00;;;;;;4991843;28;20417;-48
2023/05/29 12:57:00;;;;;;;5.25;1.50;;;20.40;1.00;;;;;;4992409;28;20034;-48
2023/05/29 12:59:28;;;;;;;8.27;1.98;;;20.50;1.00;;;;;;4992365;28;20054;-50
2023/05/29 13:01:54;;;;;;;6.47;2.20;;;20.50;1.00;;;;;;4992461;28;20034;-50
2023/05/29 13:04:22;;;;;;;7.57;1.88;;;20.50;1.00;;;;;;4992256;28;20042;-48